Time;durP1;ratioP1;P1;durP2;ratioP2;P2;SDS_P1;SDS_P2;PMS_P1;PMS_P2;Temp;Humidity;BMP_temperature;BMP_pressure;BME280_temperature;BME280_humidity;BME280_pressure;Samples;Min_cycle;Max_cycle;Signal;HPM_P1;HPM_P2
2022/12/03 00:01:52;;;;;;;14.25;7.25;;;;;;;;;;5026978;28;20045;-77
2022/12/03 00:04:18;;;;;;;15.93;8.23;;;;;;;;;;5013467;28;20053;-77
2022/12/03 00:06:44;;;;;;;12.90;7.63;;;;;;;;;;5015325;28;20038;-77
2022/12/03 00:09:10;;;;;;;14.30;8.00;;;;;;;;;;5033627;28;20045;-77
2022/12/03 00:11:36;;;;;;;12.30;7.15;;;;;;;;;;5033589;28;20053;-77
2022/12/03 00:14:02;;;;;;;14.02;7.32;;;;;;;;;;5032286;28;20129;-77
2022/12/03 00:16:28;;;;;;;15.20;8.25;;;;;;;;;;5038204;28;20072;-77
2022/12/03 00:18:54;;;;;;;16.30;8.00;;;;;;;;;;5034893;28;20053;-77
2022/12/03 00:21:20;;;;;;;14.73;8.57;;;;;;;;;;5033051;28;20558;-77
2022/12/03 00:23:46;;;;;;;15.82;8.38;;;;;;;;;;5025219;28;20041;-77
2022/12/03 00:26:12;;;;;;;14.35;7.80;;;;;;;;;;5030005;28;20136;-77
2022/12/03 00:28:38;;;;;;;12.27;7.32;;;;;;;;;;5015052;28;20042;-77
2022/12/03 00:31:04;;;;;;;16.55;7.95;;;;;;;;;;5033484;28;20046;-77
2022/12/03 00:33:30;;;;;;;12.13;7.55;;;;;;;;;;5026872;28;20052;-77
2022/12/03 00:35:56;;;;;;;14.82;8.15;;;;;;;;;;5023671;28;20379;-77
2022/12/03 00:38:22;;;;;;;14.35;7.35;;;;;;;;;;5018001;28;20042;-77
2022/12/03 00:40:48;;;;;;;14.70;7.78;;;;;;;;;;5022894;28;20124;-77
2022/12/03 00:43:14;;;;;;;12.38;7.30;;;;;;;;;;5032529;28;20120;-77
2022/12/03 00:45:40;;;;;;;16.88;8.80;;;;;;;;;;5028245;28;20180;-77
2022/12/03 00:48:06;;;;;;;16.33;8.43;;;;;;;;;;5032807;28;20048;-77
2022/12/03 00:50:32;;;;;;;14.43;7.72;;;;;;;;;;5032997;28;20091;-77
2022/12/03 00:52:58;;;;;;;13.77;8.48;;;;;;;;;;5031852;28;20511;-77
2022/12/03 00:55:24;;;;;;;14.35;8.02;;;;;;;;;;5032261;28;20046;-77
2022/12/03 00:57:50;;;;;;;13.10;7.47;;;;;;;;;;5032735;28;20049;-77
2022/12/03 01:00:17;;;;;;;15.57;7.60;;;;;;;;;;5033746;28;20045;-76
2022/12/03 01:02:43;;;;;;;14.80;7.75;;;;;;;;;;5035540;28;20048;-77
2022/12/03 01:05:09;;;;;;;16.25;7.43;;;;;;;;;;5036792;28;20045;-77
2022/12/03 01:07:35;;;;;;;16.70;7.95;;;;;;;;;;5035468;28;20144;-77
2022/12/03 01:10:02;;;;;;;14.38;7.45;;;;;;;;;;5029678;28;20041;-77
2022/12/03 01:12:29;;;;;;;14.00;7.57;;;;;;;;;;5030588;28;20061;-77
2022/12/03 01:14:55;;;;;;;12.68;7.65;;;;;;;;;;5034640;28;20041;-76
2022/12/03 01:17:21;;;;;;;14.80;7.53;;;;;;;;;;5035791;28;20051;-76
2022/12/03 01:19:47;;;;;;;16.00;8.18;;;;;;;;;;5036681;28;20041;-76
2022/12/03 01:22:13;;;;;;;15.70;8.05;;;;;;;;;;5009839;28;20049;-76
2022/12/03 01:24:40;;;;;;;14.55;8.20;;;;;;;;;;5024712;28;20041;-77
2022/12/03 01:27:06;;;;;;;13.07;8.07;;;;;;;;;;5036854;28;20096;-77
2022/12/03 01:29:32;;;;;;;15.52;8.27;;;;;;;;;;5035903;28;20477;-77
2022/12/03 01:32:18;;;;;;;12.70;7.80;;;;;;;;;;5036984;28;20080;-77
2022/12/03 01:34:48;;;;;;;16.15;7.85;;;;;;;;;;5035976;28;20076;-77
2022/12/03 01:37:17;;;;;;;16.58;8.63;;;;;;;;;;5036728;28;20076;-77
2022/12/03 01:39:43;;;;;;;15.77;8.02;;;;;;;;;;5036090;28;20037;-77
2022/12/03 01:42:16;;;;;;;12.95;7.25;;;;;;;;;;5019164;28;20514;-76
2022/12/03 01:44:42;;;;;;;15.57;8.93;;;;;;;;;;5026391;28;20385;-76
2022/12/03 01:47:13;;;;;;;13.98;8.10;;;;;;;;;;5036073;28;20044;-76
2022/12/03 01:49:43;;;;;;;15.10;8.38;;;;;;;;;;5036291;28;20486;-77
2022/12/03 01:52:14;;;;;;;17.83;8.45;;;;;;;;;;5035728;28;20037;-77
2022/12/03 01:54:44;;;;;;;15.52;8.25;;;;;;;;;;5036042;28;20046;-77
2022/12/03 01:57:18;;;;;;;16.15;8.30;;;;;;;;;;5036268;28;20055;-77
2022/12/03 01:59:45;;;;;;;13.60;7.68;;;;;;;;;;5030492;28;20037;-77
2022/12/03 02:02:12;;;;;;;14.50;8.13;;;;;;;;;;5032630;28;20046;-77
2022/12/03 02:04:38;;;;;;;13.20;7.68;;;;;;;;;;5027715;28;20093;-77
2022/12/03 02:07:21;;;;;;;16.40;8.85;;;;;;;;;;5016237;28;20046;-77
2022/12/03 02:09:50;;;;;;;13.18;8.07;;;;;;;;;;5022779;28;20484;-77
2022/12/03 02:12:18;;;;;;;14.98;7.88;;;;;;;;;;5030114;28;20068;-77
2022/12/03 02:14:45;;;;;;;14.57;7.60;;;;;;;;;;5022603;28;20041;-77
2022/12/03 02:17:12;;;;;;;14.95;8.05;;;;;;;;;;5035328;28;20052;-77
2022/12/03 02:19:38;;;;;;;13.55;7.60;;;;;;;;;;5032284;28;20503;-77
2022/12/03 02:22:15;;;;;;;12.38;7.82;;;;;;;;;;5029669;28;20404;-77
2022/12/03 02:24:41;;;;;;;16.52;7.75;;;;;;;;;;5034739;28;20496;-77
2022/12/03 02:27:07;;;;;;;15.25;8.23;;;;;;;;;;5035078;28;20072;-77
2022/12/03 02:29:33;;;;;;;13.77;8.25;;;;;;;;;;5030796;28;20053;-77
2022/12/03 02:32:00;;;;;;;14.50;7.80;;;;;;;;;;5025293;28;20067;-77
2022/12/03 02:34:40;;;;;;;12.18;7.30;;;;;;;;;;5034583;28;20095;-77
2022/12/03 02:37:08;;;;;;;15.93;7.38;;;;;;;;;;5033232;28;20077;-77
2022/12/03 02:39:36;;;;;;;14.90;7.28;;;;;;;;;;5034450;28;20045;-77
2022/12/03 02:44:48;;;;;;;13.27;8.02;;;;;;;;;;5035065;28;20133;-77
2022/12/03 02:47:14;;;;;;;13.95;7.70;;;;;;;;;;5034906;28;20045;-77
2022/12/03 02:49:40;;;;;;;15.55;8.40;;;;;;;;;;5032729;28;20037;-77
2022/12/03 02:52:06;;;;;;;15.82;8.65;;;;;;;;;;5029834;28;20359;-77
2022/12/03 02:54:35;;;;;;;14.38;7.95;;;;;;;;;;5034421;28;20128;-77
2022/12/03 02:57:01;;;;;;;13.50;9.02;;;;;;;;;;5035076;28;20480;-77
2022/12/03 02:59:28;;;;;;;14.02;8.23;;;;;;;;;;5033213;28;20124;-77
2022/12/03 03:01:54;;;;;;;17.45;9.50;;;;;;;;;;5034478;28;20050;-77
2022/12/03 03:04:21;;;;;;;13.00;7.93;;;;;;;;;;5020888;28;20037;-77
2022/12/03 03:06:47;;;;;;;12.95;7.82;;;;;;;;;;5028140;28;20050;-77
2022/12/03 03:09:13;;;;;;;13.88;8.45;;;;;;;;;;5013984;28;20050;-77
2022/12/03 03:11:39;;;;;;;14.95;8.35;;;;;;;;;;5027599;28;20041;-77
2022/12/03 03:14:05;;;;;;;16.50;8.65;;;;;;;;;;5025690;28;20038;-77
2022/12/03 03:16:33;;;;;;;15.10;8.45;;;;;;;;;;5026917;28;20037;-77
2022/12/03 03:18:59;;;;;;;15.52;8.48;;;;;;;;;;5049715;28;20606;-77
2022/12/03 03:21:25;;;;;;;17.40;9.43;;;;;;;;;;5035157;28;20084;-77
2022/12/03 03:23:51;;;;;;;17.15;8.93;;;;;;;;;;5036394;28;20412;-77
2022/12/03 03:26:17;;;;;;;16.85;9.05;;;;;;;;;;5033074;28;20059;-77
2022/12/03 03:28:46;;;;;;;16.38;8.82;;;;;;;;;;5036431;28;20041;-77
2022/12/03 03:31:13;;;;;;;15.50;8.48;;;;;;;;;;5030528;28;20087;-77
2022/12/03 03:33:41;;;;;;;16.67;9.25;;;;;;;;;;5021516;28;20048;-77
2022/12/03 03:36:08;;;;;;;17.35;8.50;;;;;;;;;;5032577;28;20045;-77
2022/12/03 03:38:35;;;;;;;16.08;9.02;;;;;;;;;;5013930;28;20054;-77
2022/12/03 03:41:01;;;;;;;18.75;9.88;;;;;;;;;;5024307;28;20456;-78
2022/12/03 03:43:28;;;;;;;17.00;9.05;;;;;;;;;;5032630;28;20115;-78
2022/12/03 03:45:55;;;;;;;19.42;10.48;;;;;;;;;;5016385;28;20045;-78
2022/12/03 03:48:21;;;;;;;19.52;9.88;;;;;;;;;;5020326;28;20045;-78
2022/12/03 03:50:49;;;;;;;18.25;9.25;;;;;;;;;;5031680;28;20072;-78
2022/12/03 03:53:15;;;;;;;16.25;9.43;;;;;;;;;;5034101;28;20076;-78
2022/12/03 03:55:41;;;;;;;17.48;8.98;;;;;;;;;;5027233;28;20050;-77
2022/12/03 03:58:08;;;;;;;16.92;9.30;;;;;;;;;;5021779;28;20067;-77
2022/12/03 04:00:35;;;;;;;18.60;10.02;;;;;;;;;;5029208;28;20096;-77
2022/12/03 04:03:02;;;;;;;16.67;9.30;;;;;;;;;;5033756;28;20085;-77
2022/12/03 04:05:28;;;;;;;17.92;10.13;;;;;;;;;;5033915;28;20083;-77
2022/12/03 04:07:54;;;;;;;15.52;9.13;;;;;;;;;;5023364;28;20045;-77
2022/12/03 04:13:05;;;;;;;18.63;9.60;;;;;;;;;;5034691;28;20068;-77
2022/12/03 04:15:31;;;;;;;18.08;9.77;;;;;;;;;;5023233;28;20051;-78
2022/12/03 04:20:43;;;;;;;19.37;10.23;;;;;;;;;;5033882;28;20128;-78
2022/12/03 04:23:09;;;;;;;23.80;10.63;;;;;;;;;;5034448;28;20045;-78
2022/12/03 04:36:35;;;;;;;19.60;10.55;;;;;;;;;;5027529;28;20234;-77
2022/12/03 04:39:01;;;;;;;18.27;10.57;;;;;;;;;;5036684;28;20519;-78
2022/12/03 04:41:27;;;;;;;17.90;9.95;;;;;;;;;;5037452;28;20114;-77
2022/12/03 04:46:38;;;;;;;17.30;9.70;;;;;;;;;;5037564;28;20072;-77
2022/12/03 04:49:04;;;;;;;19.65;10.02;;;;;;;;;;5037133;28;20456;-77
2022/12/03 04:51:30;;;;;;;17.65;9.93;;;;;;;;;;5037565;28;20038;-77
2022/12/03 04:53:56;;;;;;;17.20;9.35;;;;;;;;;;5037520;28;20049;-78
2022/12/03 04:56:22;;;;;;;18.67;9.43;;;;;;;;;;5037316;28;20160;-77
2022/12/03 04:58:48;;;;;;;19.70;10.75;;;;;;;;;;5031146;28;20104;-77
2022/12/03 05:01:14;;;;;;;18.33;10.27;;;;;;;;;;5033766;28;20045;-77
2022/12/03 05:03:40;;;;;;;17.83;9.32;;;;;;;;;;5036496;28;20091;-77
2022/12/03 05:06:06;;;;;;;17.88;9.07;;;;;;;;;;5036851;28;20091;-77
2022/12/03 05:08:32;;;;;;;17.27;9.55;;;;;;;;;;5024934;28;20124;-77
2022/12/03 05:10:58;;;;;;;20.45;9.93;;;;;;;;;;5034067;28;20088;-77
2022/12/03 05:13:24;;;;;;;18.80;9.93;;;;;;;;;;5034727;28;20053;-77
2022/12/03 05:15:50;;;;;;;19.33;9.93;;;;;;;;;;5034330;28;20399;-77
2022/12/03 05:18:16;;;;;;;18.33;9.95;;;;;;;;;;5033402;28;20511;-77
2022/12/03 05:20:42;;;;;;;19.52;10.15;;;;;;;;;;5036275;28;20522;-77
2022/12/03 05:23:13;;;;;;;18.35;9.10;;;;;;;;;;5036580;28;20045;-77
2022/12/03 05:25:39;;;;;;;16.42;9.48;;;;;;;;;;5036630;28;20056;-77
2022/12/03 05:28:06;;;;;;;18.98;9.52;;;;;;;;;;5035516;28;20506;-77
2022/12/03 05:30:32;;;;;;;16.42;9.00;;;;;;;;;;5036266;28;20123;-77
2022/12/03 05:32:58;;;;;;;17.60;9.50;;;;;;;;;;5027543;28;20135;-77
2022/12/03 05:35:24;;;;;;;18.75;9.88;;;;;;;;;;5028734;28;20428;-77
2022/12/03 05:37:50;;;;;;;18.23;9.73;;;;;;;;;;5027181;28;20388;-77
2022/12/03 05:40:16;;;;;;;18.75;9.10;;;;;;;;;;5024206;28;20493;-77
2022/12/03 05:43:00;;;;;;;18.33;8.70;;;;;;;;;;5036051;28;20038;-77
2022/12/03 05:45:28;;;;;;;17.15;8.98;;;;;;;;;;5027834;28;20108;-77
2022/12/03 05:47:54;;;;;;;16.00;8.68;;;;;;;;;;5035610;28;20396;-78
2022/12/03 05:50:21;;;;;;;17.20;8.55;;;;;;;;;;5021490;28;20042;-78
2022/12/03 05:52:47;;;;;;;17.83;8.02;;;;;;;;;;5022816;28;20121;-78
2022/12/03 05:55:14;;;;;;;16.83;8.75;;;;;;;;;;5023117;28;20100;-78
2022/12/03 05:57:40;;;;;;;17.33;9.25;;;;;;;;;;5033170;28;20045;-78
2022/12/03 06:00:07;;;;;;;17.98;9.13;;;;;;;;;;5032628;28;20053;-78
2022/12/03 06:02:33;;;;;;;17.50;8.90;;;;;;;;;;5033720;28;20096;-78
2022/12/03 06:04:59;;;;;;;17.17;8.90;;;;;;;;;;5035845;28;20042;-78
2022/12/03 06:07:25;;;;;;;16.30;8.63;;;;;;;;;;5035230;28;20128;-78
2022/12/03 06:09:52;;;;;;;15.52;8.38;;;;;;;;;;5035789;28;20037;-78
2022/12/03 06:12:18;;;;;;;16.63;8.50;;;;;;;;;;5037222;28;20043;-78
2022/12/03 06:14:44;;;;;;;15.52;8.30;;;;;;;;;;5040903;28;20507;-78
2022/12/03 06:17:10;;;;;;;15.73;8.63;;;;;;;;;;5028547;28;20042;-78
2022/12/03 06:19:36;;;;;;;17.73;9.02;;;;;;;;;;5019656;28;20042;-79
2022/12/03 06:22:02;;;;;;;15.77;8.60;;;;;;;;;;5032910;28;20052;-78
2022/12/03 06:24:28;;;;;;;15.93;8.60;;;;;;;;;;5033987;28;20056;-78
2022/12/03 06:26:54;;;;;;;15.18;7.78;;;;;;;;;;5034808;28;20103;-78
2022/12/03 06:29:20;;;;;;;15.13;7.45;;;;;;;;;;5017490;28;20053;-78
2022/12/03 06:31:46;;;;;;;14.90;7.85;;;;;;;;;;5035417;28;20103;-77
2022/12/03 06:34:12;;;;;;;13.85;7.40;;;;;;;;;;5037341;28;20045;-77
2022/12/03 06:36:38;;;;;;;16.27;8.48;;;;;;;;;;5037673;28;20041;-77
2022/12/03 06:39:04;;;;;;;15.10;8.43;;;;;;;;;;5001617;28;20454;-77
2022/12/03 06:41:30;;;;;;;16.95;8.50;;;;;;;;;;5034460;28;20478;-78
2022/12/03 06:43:56;;;;;;;16.15;8.45;;;;;;;;;;5035176;28;20045;-78
2022/12/03 06:46:22;;;;;;;13.65;7.90;;;;;;;;;;5034844;28;20387;-78
2022/12/03 06:48:48;;;;;;;13.65;7.70;;;;;;;;;;5034783;28;20383;-77
2022/12/03 06:51:15;;;;;;;15.45;7.82;;;;;;;;;;5031447;28;20051;-77
2022/12/03 06:53:41;;;;;;;15.15;7.63;;;;;;;;;;5017246;28;20095;-77
2022/12/03 06:56:07;;;;;;;13.63;7.05;;;;;;;;;;5034489;28;20053;-77
2022/12/03 06:58:33;;;;;;;13.95;7.53;;;;;;;;;;5018177;28;20377;-77
2022/12/03 07:00:59;;;;;;;13.60;8.10;;;;;;;;;;5032429;28;20037;-77
2022/12/03 07:03:25;;;;;;;13.05;7.28;;;;;;;;;;5035499;28;20511;-78
2022/12/03 07:05:51;;;;;;;13.32;6.43;;;;;;;;;;5035928;28;20044;-78
2022/12/03 07:08:17;;;;;;;14.48;7.20;;;;;;;;;;5034798;28;20095;-78
2022/12/03 07:10:43;;;;;;;13.82;8.30;;;;;;;;;;5032440;28;20050;-78
2022/12/03 07:13:09;;;;;;;17.10;8.63;;;;;;;;;;5031151;28;20045;-78
2022/12/03 07:15:36;;;;;;;10.82;6.50;;;;;;;;;;5034332;28;20116;-78
2022/12/03 07:18:02;;;;;;;14.80;7.72;;;;;;;;;;5016208;28;20053;-78
2022/12/03 07:20:28;;;;;;;14.90;7.65;;;;;;;;;;5034090;28;20049;-78
2022/12/03 07:22:54;;;;;;;16.77;8.20;;;;;;;;;;5033898;28;20169;-78
2022/12/03 07:25:20;;;;;;;14.52;7.78;;;;;;;;;;5050020;28;20056;-78
2022/12/03 07:27:46;;;;;;;12.23;7.03;;;;;;;;;;5033952;28;20045;-78
2022/12/03 07:30:13;;;;;;;14.13;8.40;;;;;;;;;;5034663;28;20048;-78
2022/12/03 07:32:39;;;;;;;11.68;6.85;;;;;;;;;;5034206;28;20048;-78
2022/12/03 07:35:06;;;;;;;14.52;8.13;;;;;;;;;;5028526;28;20053;-78
2022/12/03 07:37:35;;;;;;;13.73;7.93;;;;;;;;;;5026631;28;20069;-78
2022/12/03 07:40:01;;;;;;;14.55;8.07;;;;;;;;;;5014921;28;20042;-78
2022/12/03 07:42:27;;;;;;;13.00;7.20;;;;;;;;;;5019762;28;20045;-78
2022/12/03 07:44:53;;;;;;;12.07;7.13;;;;;;;;;;5037529;28;20049;-78
2022/12/03 07:47:19;;;;;;;15.20;7.95;;;;;;;;;;5027309;28;21996;-78
2022/12/03 07:49:45;;;;;;;14.20;7.72;;;;;;;;;;5023934;28;20105;-78
2022/12/03 07:52:12;;;;;;;13.95;8.00;;;;;;;;;;5030977;28;20396;-78
2022/12/03 07:54:38;;;;;;;18.48;8.68;;;;;;;;;;5024741;28;20531;-78
2022/12/03 07:57:04;;;;;;;13.13;7.38;;;;;;;;;;5027133;28;20504;-78
2022/12/03 07:59:30;;;;;;;14.25;7.65;;;;;;;;;;5020338;28;20045;-79
2022/12/03 08:01:56;;;;;;;13.65;7.43;;;;;;;;;;5029458;28;20077;-79
2022/12/03 08:04:22;;;;;;;14.20;7.40;;;;;;;;;;5036916;28;20050;-79
2022/12/03 08:06:48;;;;;;;14.02;7.47;;;;;;;;;;5039445;28;20045;-78
2022/12/03 08:09:14;;;;;;;15.02;8.23;;;;;;;;;;5032409;28;20511;-78
2022/12/03 08:11:41;;;;;;;13.48;7.53;;;;;;;;;;5033920;28;20056;-78
2022/12/03 08:14:12;;;;;;;14.52;7.55;;;;;;;;;;5033672;28;20068;-78
2022/12/03 08:16:39;;;;;;;16.35;7.85;;;;;;;;;;5028982;28;20088;-78
2022/12/03 08:19:09;;;;;;;14.25;8.07;;;;;;;;;;5036980;28;20056;-78
2022/12/03 08:21:35;;;;;;;14.30;8.18;;;;;;;;;;5036999;28;20038;-78
2022/12/03 08:24:15;;;;;;;13.27;7.60;;;;;;;;;;5032294;28;20069;-78
2022/12/03 08:26:45;;;;;;;16.92;7.97;;;;;;;;;;5037565;28;20037;-78
2022/12/03 08:29:12;;;;;;;15.93;8.27;;;;;;;;;;5027660;28;20042;-77
2022/12/03 08:31:41;;;;;;;15.45;7.78;;;;;;;;;;5018579;28;20087;-77
2022/12/03 08:34:18;;;;;;;15.75;8.25;;;;;;;;;;5035468;28;20083;-77
2022/12/03 08:36:45;;;;;;;15.88;7.72;;;;;;;;;;5022235;28;20042;-78
2022/12/03 08:39:17;;;;;;;16.13;8.55;;;;;;;;;;5032050;28;20499;-77
2022/12/03 08:44:34;;;;;;;15.95;8.18;;;;;;;;;;5038671;28;20472;-82
2022/12/03 08:47:21;;;;;;;14.73;7.90;;;;;;;;;;5021638;28;20048;-81
2022/12/03 08:49:52;;;;;;;17.42;8.85;;;;;;;;;;5033745;28;20052;-82
2022/12/03 08:52:19;;;;;;;17.90;8.90;;;;;;;;;;5006592;28;20369;-82
2022/12/03 08:54:53;;;;;;;15.90;7.82;;;;;;;;;;5019228;28;20529;-82
2022/12/03 08:57:24;;;;;;;16.92;9.30;;;;;;;;;;5021743;28;20415;-80
2022/12/03 08:59:52;;;;;;;14.98;8.15;;;;;;;;;;5054941;28;20045;-81
2022/12/03 09:02:23;;;;;;;18.85;8.73;;;;;;;;;;5037516;28;20144;-80
2022/12/03 09:04:51;;;;;;;16.88;8.90;;;;;;;;;;5022211;28;20049;-81
2022/12/03 09:07:17;;;;;;;17.25;8.77;;;;;;;;;;5041995;28;20045;-80
2022/12/03 09:09:43;;;;;;;18.38;8.90;;;;;;;;;;5026324;28;20200;-80
2022/12/03 09:12:10;;;;;;;17.40;8.77;;;;;;;;;;5040865;28;20067;-80
2022/12/03 09:14:36;;;;;;;17.88;9.20;;;;;;;;;;5021482;28;20038;-80
2022/12/03 09:17:04;;;;;;;18.73;9.10;;;;;;;;;;5030640;28;20045;-80
2022/12/03 09:19:33;;;;;;;14.82;8.25;;;;;;;;;;5035865;28;20050;-82
2022/12/03 09:21:59;;;;;;;15.73;8.80;;;;;;;;;;5009388;28;20090;-79
2022/12/03 09:24:25;;;;;;;16.85;8.20;;;;;;;;;;5034593;28;20049;-77
2022/12/03 09:26:51;;;;;;;16.35;8.88;;;;;;;;;;5036611;28;20095;-77
2022/12/03 09:29:17;;;;;;;16.83;8.68;;;;;;;;;;5026248;28;20050;-77
2022/12/03 09:31:44;;;;;;;17.13;9.35;;;;;;;;;;5022992;28;20102;-77
2022/12/03 09:34:10;;;;;;;15.90;9.35;;;;;;;;;;5031388;28;20077;-77
2022/12/03 09:36:36;;;;;;;16.92;9.18;;;;;;;;;;5030414;28;20419;-77
2022/12/03 09:39:05;;;;;;;16.17;9.13;;;;;;;;;;5040268;28;20049;-79
2022/12/03 09:41:31;;;;;;;17.27;8.95;;;;;;;;;;5037278;28;20535;-78
2022/12/03 09:43:57;;;;;;;18.02;9.35;;;;;;;;;;5034131;28;20081;-77
2022/12/03 09:46:23;;;;;;;16.10;8.98;;;;;;;;;;5037300;28;20131;-77
2022/12/03 09:48:49;;;;;;;21.52;9.63;;;;;;;;;;5033014;28;20038;-78
2022/12/03 09:51:15;;;;;;;17.70;9.45;;;;;;;;;;5039832;28;20044;-78
2022/12/03 09:53:41;;;;;;;16.75;8.73;;;;;;;;;;5036028;28;20125;-78
2022/12/03 09:56:14;;;;;;;18.73;9.55;;;;;;;;;;5018290;28;22281;-78
2022/12/03 09:58:42;;;;;;;18.85;8.70;;;;;;;;;;5035106;28;20041;-78
2022/12/03 10:01:12;;;;;;;17.38;9.38;;;;;;;;;;5035566;28;20060;-78
2022/12/03 10:03:40;;;;;;;20.42;9.85;;;;;;;;;;5036008;28;20120;-78
2022/12/03 10:06:08;;;;;;;17.73;8.90;;;;;;;;;;5035318;28;20096;-78
2022/12/03 10:08:34;;;;;;;20.23;9.70;;;;;;;;;;5035171;28;20143;-77
2022/12/03 10:11:01;;;;;;;18.00;9.68;;;;;;;;;;5035687;28;20045;-77
2022/12/03 10:13:33;;;;;;;16.70;9.15;;;;;;;;;;5026290;28;20041;-77
2022/12/03 10:16:00;;;;;;;18.15;9.13;;;;;;;;;;5015680;28;20050;-77
2022/12/03 10:18:28;;;;;;;19.08;9.55;;;;;;;;;;5027598;28;20129;-78
2022/12/03 10:20:54;;;;;;;20.52;9.52;;;;;;;;;;5020193;28;20042;-77
2022/12/03 10:23:22;;;;;;;17.77;9.38;;;;;;;;;;5033010;28;20076;-77
2022/12/03 10:25:56;;;;;;;18.10;9.48;;;;;;;;;;5035557;28;20049;-77
2022/12/03 10:28:52;;;;;;;19.30;9.73;;;;;;;;;;5029236;28;20176;-77
2022/12/03 10:31:18;;;;;;;19.25;9.20;;;;;;;;;;5012528;28;20060;-77
2022/12/03 10:33:46;;;;;;;19.05;9.90;;;;;;;;;;5034871;28;20499;-78
2022/12/03 10:36:17;;;;;;;19.35;9.75;;;;;;;;;;5039189;28;20069;-80
2022/12/03 10:38:43;;;;;;;20.45;9.18;;;;;;;;;;5036112;28;20053;-78
2022/12/03 10:41:26;;;;;;;17.85;9.52;;;;;;;;;;5040626;28;20124;-79
2022/12/03 10:43:52;;;;;;;19.75;10.00;;;;;;;;;;5019607;28;20038;-77
2022/12/03 10:46:22;;;;;;;17.45;9.02;;;;;;;;;;5018187;28;20045;-78
2022/12/03 10:49:07;;;;;;;14.43;8.73;;;;;;;;;;5034926;28;20049;-76
2022/12/03 10:51:34;;;;;;;19.13;9.68;;;;;;;;;;5035983;28;20063;-79
2022/12/03 10:54:01;;;;;;;18.73;9.18;;;;;;;;;;5036784;28;20049;-78
2022/12/03 10:56:27;;;;;;;21.27;10.25;;;;;;;;;;5035155;28;20061;-78
2022/12/03 10:58:54;;;;;;;20.40;10.52;;;;;;;;;;5031809;28;20472;-78
2022/12/03 11:01:24;;;;;;;19.13;9.25;;;;;;;;;;5034990;28;20063;-78
2022/12/03 11:03:50;;;;;;;15.75;8.85;;;;;;;;;;5033421;28;20047;-78
2022/12/03 11:06:17;;;;;;;21.20;10.85;;;;;;;;;;5034178;28;20045;-78
2022/12/03 11:08:46;;;;;;;20.92;10.65;;;;;;;;;;5016102;28;20045;-78
2022/12/03 11:11:17;;;;;;;19.00;9.32;;;;;;;;;;5014692;28;20048;-78
2022/12/03 11:13:45;;;;;;;18.88;8.95;;;;;;;;;;5017041;28;20607;-79
2022/12/03 11:16:11;;;;;;;18.35;10.07;;;;;;;;;;5030051;28;20117;-79
2022/12/03 11:18:38;;;;;;;18.13;9.15;;;;;;;;;;5031733;28;20057;-79
2022/12/03 11:21:05;;;;;;;19.38;9.90;;;;;;;;;;5015872;28;20050;-78
2022/12/03 11:23:43;;;;;;;19.15;9.32;;;;;;;;;;5016731;28;20050;-79
2022/12/03 11:26:10;;;;;;;17.30;9.63;;;;;;;;;;5030277;28;20404;-78
2022/12/03 11:28:38;;;;;;;18.17;9.70;;;;;;;;;;5036920;28;20044;-78
2022/12/03 11:31:08;;;;;;;19.70;10.35;;;;;;;;;;5036523;28;20443;-79
2022/12/03 11:33:39;;;;;;;17.13;9.30;;;;;;;;;;5027781;28;20384;-80
2022/12/03 11:36:05;;;;;;;19.67;9.70;;;;;;;;;;5035272;28;20048;-79
2022/12/03 11:38:37;;;;;;;20.23;11.48;;;;;;;;;;5035417;28;20045;-78
2022/12/03 11:41:10;;;;;;;22.13;9.82;;;;;;;;;;5029997;28;20050;-78
2022/12/03 11:43:52;;;;;;;19.30;9.48;;;;;;;;;;5016037;28;20120;-78
2022/12/03 11:46:25;;;;;;;19.17;9.18;;;;;;;;;;5034293;28;20077;-77
2022/12/03 11:48:52;;;;;;;21.10;10.57;;;;;;;;;;5033072;28;20045;-77
2022/12/03 11:51:20;;;;;;;18.10;9.77;;;;;;;;;;5033231;28;20037;-77
2022/12/03 11:53:47;;;;;;;20.20;10.30;;;;;;;;;;5033321;28;20052;-77
2022/12/03 11:56:18;;;;;;;20.02;10.48;;;;;;;;;;5023540;28;20042;-78
2022/12/03 11:58:46;;;;;;;17.75;9.82;;;;;;;;;;5032922;28;20128;-77
2022/12/03 12:01:12;;;;;;;18.73;9.98;;;;;;;;;;5014271;28;20073;-77
2022/12/03 12:03:46;;;;;;;19.42;9.90;;;;;;;;;;5015345;28;20092;-79
2022/12/03 12:06:15;;;;;;;20.88;10.93;;;;;;;;;;5031909;28;20069;-81
2022/12/03 12:09:02;;;;;;;18.63;9.73;;;;;;;;;;5035896;28;20034;-78
2022/12/03 12:11:32;;;;;;;19.58;10.40;;;;;;;;;;5020825;28;20044;-78
2022/12/03 12:14:06;;;;;;;19.67;10.57;;;;;;;;;;5034315;28;20049;-78
2022/12/03 12:16:49;;;;;;;20.48;10.68;;;;;;;;;;5021584;28;20034;-78
2022/12/03 12:19:30;;;;;;;17.63;9.73;;;;;;;;;;5034126;28;20053;-79
2022/12/03 12:22:16;;;;;;;22.42;12.10;;;;;;;;;;5035827;28;20049;-80
2022/12/03 12:24:45;;;;;;;20.30;10.80;;;;;;;;;;5026358;28;20054;-78
2022/12/03 12:27:14;;;;;;;21.88;10.07;;;;;;;;;;5023885;28;20049;-78
2022/12/03 12:29:41;;;;;;;21.95;11.73;;;;;;;;;;5033274;28;20045;-77
2022/12/03 12:32:11;;;;;;;20.73;11.25;;;;;;;;;;5033506;28;20053;-77
2022/12/03 12:34:38;;;;;;;19.40;11.50;;;;;;;;;;5033520;28;20391;-77
2022/12/03 12:37:05;;;;;;;21.35;10.98;;;;;;;;;;5033551;28;20038;-77
2022/12/03 12:39:32;;;;;;;19.50;11.13;;;;;;;;;;5033066;28;20515;-77
2022/12/03 12:41:58;;;;;;;21.70;11.57;;;;;;;;;;5034020;28;20050;-77
2022/12/03 12:44:25;;;;;;;20.17;11.20;;;;;;;;;;5033332;28;20123;-77
2022/12/03 12:46:52;;;;;;;23.27;10.88;;;;;;;;;;5033550;28;20060;-77
2022/12/03 12:49:23;;;;;;;23.70;11.05;;;;;;;;;;5013447;28;20527;-77
2022/12/03 12:51:50;;;;;;;22.17;11.18;;;;;;;;;;5013666;28;20429;-77
2022/12/03 12:54:17;;;;;;;19.27;10.82;;;;;;;;;;5024001;28;20042;-77
2022/12/03 12:56:44;;;;;;;22.15;11.63;;;;;;;;;;5013741;28;20046;-77
2022/12/03 12:59:15;;;;;;;21.48;11.20;;;;;;;;;;5031936;28;20108;-77
2022/12/03 13:01:42;;;;;;;20.65;9.73;;;;;;;;;;5030430;28;20045;-77
2022/12/03 13:04:12;;;;;;;19.52;10.65;;;;;;;;;;5026202;28;20038;-77
2022/12/03 13:06:39;;;;;;;22.42;11.05;;;;;;;;;;5043201;28;20068;-77
2022/12/03 13:09:12;;;;;;;21.33;11.65;;;;;;;;;;5026398;28;20161;-77
2022/12/03 13:11:44;;;;;;;21.60;11.57;;;;;;;;;;5017188;28;20132;-77
2022/12/03 13:14:18;;;;;;;21.48;10.90;;;;;;;;;;5031409;28;20045;-77
2022/12/03 13:16:45;;;;;;;20.98;9.95;;;;;;;;;;5036914;28;20041;-77
2022/12/03 13:19:22;;;;;;;21.65;11.15;;;;;;;;;;5052208;28;20057;-77
2022/12/03 13:21:49;;;;;;;23.02;11.63;;;;;;;;;;5036715;28;20107;-77
2022/12/03 13:24:30;;;;;;;22.85;12.15;;;;;;;;;;5036641;28;20041;-77
2022/12/03 13:26:56;;;;;;;22.42;12.23;;;;;;;;;;5017003;28;20484;-77
2022/12/03 13:29:23;;;;;;;22.50;11.75;;;;;;;;;;5030614;28;20052;-77
2022/12/03 13:31:49;;;;;;;19.38;10.73;;;;;;;;;;5022908;28;20132;-78
2022/12/03 13:34:35;;;;;;;23.55;11.73;;;;;;;;;;5036008;28;20135;-78
2022/12/03 13:37:02;;;;;;;21.80;10.80;;;;;;;;;;5019362;28;20045;-78
2022/12/03 13:39:28;;;;;;;22.45;11.75;;;;;;;;;;5036191;28;20049;-77
2022/12/03 13:44:42;;;;;;;22.27;11.70;;;;;;;;;;5036362;28;20049;-77
2022/12/03 13:47:13;;;;;;;22.92;11.27;;;;;;;;;;5035744;28;20120;-77
2022/12/03 13:49:39;;;;;;;22.65;11.10;;;;;;;;;;5035494;28;20095;-77
2022/12/03 13:52:10;;;;;;;21.95;11.77;;;;;;;;;;5035468;28;20049;-77
2022/12/03 13:54:38;;;;;;;23.02;11.73;;;;;;;;;;5036319;28;20072;-77
2022/12/03 13:57:05;;;;;;;21.00;11.32;;;;;;;;;;5035743;28;20116;-77
2022/12/03 13:59:31;;;;;;;22.05;11.10;;;;;;;;;;5023064;28;20045;-77
2022/12/03 14:01:57;;;;;;;21.15;11.10;;;;;;;;;;5016104;28;20038;-77
2022/12/03 14:04:23;;;;;;;22.25;11.13;;;;;;;;;;5031585;28;20042;-77
2022/12/03 14:06:49;;;;;;;21.88;11.65;;;;;;;;;;5035737;28;20112;-77
2022/12/03 14:09:15;;;;;;;23.55;11.40;;;;;;;;;;5035355;28;20119;-77
2022/12/03 14:14:26;;;;;;;23.27;12.70;;;;;;;;;;5033150;28;20049;-77
2022/12/03 14:16:52;;;;;;;24.85;12.80;;;;;;;;;;5035104;28;20404;-77
2022/12/03 14:19:18;;;;;;;24.05;12.77;;;;;;;;;;5035033;28;20455;-77
2022/12/03 14:21:44;;;;;;;28.30;13.68;;;;;;;;;;5035594;28;20529;-77
2022/12/03 14:24:10;;;;;;;24.00;12.50;;;;;;;;;;5021733;28;20530;-77
2022/12/03 14:26:36;;;;;;;25.20;13.32;;;;;;;;;;5049364;28;20372;-77
2022/12/03 14:29:02;;;;;;;22.75;12.48;;;;;;;;;;5030134;28;20487;-77
2022/12/03 14:31:29;;;;;;;24.25;12.15;;;;;;;;;;5014267;28;20390;-77
2022/12/03 14:33:55;;;;;;;24.73;12.45;;;;;;;;;;5013837;28;20061;-77
2022/12/03 14:36:21;;;;;;;24.88;12.48;;;;;;;;;;5015115;28;20042;-77
2022/12/03 14:38:47;;;;;;;26.10;12.95;;;;;;;;;;4997535;28;20077;-78
2022/12/03 14:43:57;;;;;;;21.88;11.88;;;;;;;;;;5029666;28;20041;-77
2022/12/03 14:46:23;;;;;;;21.27;11.15;;;;;;;;;;5034488;28;20051;-77
2022/12/03 14:48:49;;;;;;;21.58;11.70;;;;;;;;;;5034348;28;20125;-77
2022/12/03 14:51:16;;;;;;;25.15;12.20;;;;;;;;;;5033612;28;20116;-77
2022/12/03 14:53:42;;;;;;;23.73;11.63;;;;;;;;;;5034453;28;20041;-77
2022/12/03 14:56:08;;;;;;;24.23;13.00;;;;;;;;;;5034413;28;20041;-77
2022/12/03 14:58:34;;;;;;;24.15;12.05;;;;;;;;;;5034035;28;20450;-77
2022/12/03 15:01:00;;;;;;;23.00;12.15;;;;;;;;;;5020669;28;20053;-77
2022/12/03 15:03:26;;;;;;;26.73;12.38;;;;;;;;;;5033813;28;20045;-77